Time;durP1;ratioP1;P1;durP2;ratioP2;P2;SDS_P1;SDS_P2;PMS_P1;PMS_P2;Temp;Humidity;BMP_temperature;BMP_pressure;BME280_temperature;BME280_humidity;BME280_pressure;Samples;Min_cycle;Max_cycle;Signal;HPM_P1;HPM_P2
2023/02/07 00:00:31;;;;;;;33.00;15.20;;;;;;;8.89;39.39;101637.82;108871;1259;69347;-82
2023/02/07 00:03:00;;;;;;;32.10;15.50;;;;;;;9.08;39.05;101640.66;108384;1258;73747;-82
2023/02/07 00:05:54;;;;;;;25.60;13.00;;;;;;;9.04;39.32;101637.55;108367;1259;59553;-82
2023/02/07 00:08:51;;;;;;;29.20;15.50;;;;;;;8.94;39.39;101641.45;108382;1259;61171;-83
2023/02/07 00:11:55;;;;;;;35.80;16.40;;;;;;;8.89;39.52;101637.63;108524;1259;73712;-83
2023/02/07 00:14:34;;;;;;;25.80;13.10;;;;;;;8.97;39.34;101637.05;108618;1259;70425;-81
2023/02/07 00:17:30;;;;;;;33.40;16.40;;;;;;;9.11;39.36;101637.50;108659;1259;72213;-82
2023/02/07 00:20:16;;;;;;;33.00;16.00;;;;;;;9.09;39.25;101630.33;108555;1259;60405;-81
2023/02/07 00:22:58;;;;;;;27.60;12.60;;;;;;;9.08;39.11;101624.89;108340;1259;60107;-82
2023/02/07 00:25:39;;;;;;;30.70;15.10;;;;;;;8.97;39.32;101624.45;108510;1259;71903;-81
2023/02/07 00:28:06;;;;;;;31.40;15.90;;;;;;;8.99;39.28;101626.19;108363;1258;69986;-82
2023/02/07 00:30:34;;;;;;;27.70;14.50;;;;;;;8.95;39.37;101624.80;108455;1259;72373;-80
2023/02/07 00:33:04;;;;;;;31.10;14.10;;;;;;;9.25;39.07;101621.27;108545;1259;61145;-81
2023/02/07 00:35:32;;;;;;;31.10;14.10;;;;;;;8.88;39.46;101619.43;108621;1259;60189;-80
2023/02/07 00:38:00;;;;;;;25.70;12.70;;;;;;;9.06;39.41;101620.52;108451;1259;73493;-82
2023/02/07 00:40:29;;;;;;;28.80;14.60;;;;;;;8.97;39.51;101618.31;108438;1259;70497;-81
2023/02/07 00:42:57;;;;;;;35.10;15.30;;;;;;;8.84;39.62;101616.47;108429;1259;72105;-82
2023/02/07 00:45:24;;;;;;;35.50;15.90;;;;;;;8.77;39.97;101612.50;108560;1258;58490;-81
2023/02/07 00:47:52;;;;;;;28.90;15.50;;;;;;;8.78;39.87;101608.98;108593;1258;59658;-81
2023/02/07 00:50:22;;;;;;;30.90;14.10;;;;;;;8.48;40.13;101608.61;108567;1258;73802;-80
2023/02/07 00:52:50;;;;;;;25.10;13.10;;;;;;;8.62;40.17;101598.55;108511;1259;70302;-81
2023/02/07 00:55:17;;;;;;;27.80;14.20;;;;;;;8.49;40.26;101601.26;108605;1258;72767;-82
2023/02/07 00:57:48;;;;;;;27.00;14.20;;;;;;;8.64;40.00;101601.36;108568;1259;61156;-82
2023/02/07 01:00:15;;;;;;;32.40;15.50;;;;;;;8.78;39.72;101602.33;108562;1258;59290;-82
2023/02/07 01:02:44;;;;;;;25.60;12.90;;;;;;;8.66;40.19;101604.85;108646;1258;72358;-82
2023/02/07 01:05:13;;;;;;;29.10;14.90;;;;;;;8.73;40.18;101604.80;108583;1258;70210;-82
2023/02/07 01:07:44;;;;;;;25.60;14.70;;;;;;;8.59;40.27;101600.86;108482;1259;72844;-81
2023/02/07 01:10:11;;;;;;;25.10;12.90;;;;;;;8.77;40.20;101595.33;108550;1258;61081;-81
2023/02/07 01:12:41;;;;;;;31.00;15.60;;;;;;;8.79;40.12;101595.14;108479;1259;60301;-82
2023/02/07 01:15:10;;;;;;;31.00;14.60;;;;;;;8.68;40.25;101589.60;108525;1259;73551;-82
2023/02/07 01:17:40;;;;;;;29.30;15.30;;;;;;;8.53;40.50;101586.00;108431;1259;71236;-83
2023/02/07 01:20:09;;;;;;;29.60;13.80;;;;;;;8.53;40.61;101583.55;108393;1259;74223;-81
2023/02/07 01:22:41;;;;;;;24.90;12.80;;;;;;;8.44;40.56;101584.83;108568;1258;61260;-81
2023/02/07 01:25:11;;;;;;;28.90;14.30;;;;;;;8.45;40.49;101590.77;108634;1259;61506;-81
2023/02/07 01:27:40;;;;;;;25.50;13.90;;;;;;;8.47;40.41;101594.61;108424;1259;73786;-83
2023/02/07 01:30:09;;;;;;;19.20;10.60;;;;;;;8.22;40.87;101589.63;108612;1259;70052;-81
2023/02/07 01:32:38;;;;;;;31.70;14.30;;;;;;;8.07;41.41;101584.79;108519;1259;72617;-80
2023/02/07 01:35:06;;;;;;;26.30;11.50;;;;;;;8.42;40.82;101584.48;108675;1258;60115;-81
2023/02/07 01:37:36;;;;;;;33.20;14.70;;;;;;;8.53;40.95;101579.02;109134;1259;60210;-82
2023/02/07 01:40:06;;;;;;;29.00;14.30;;;;;;;8.62;40.55;101582.64;108986;1258;72537;-81
2023/02/07 01:42:35;;;;;;;27.10;14.70;;;;;;;8.69;40.57;101586.09;109032;1259;70883;-82
2023/02/07 01:45:25;;;;;;;29.50;15.50;;;;;;;8.88;40.27;101590.52;109011;1259;72702;-82
2023/02/07 01:48:03;;;;;;;29.40;15.30;;;;;;;8.95;40.23;101590.66;109121;1258;59565;-81
2023/02/07 01:50:32;;;;;;;30.00;15.10;;;;;;;8.70;40.45;101592.04;108972;1259;60233;-82
2023/02/07 01:53:16;;;;;;;29.00;14.30;;;;;;;8.57;40.62;101587.91;109132;1258;74019;-83
2023/02/07 01:55:47;;;;;;;31.50;14.70;;;;;;;8.70;40.51;101589.41;108929;1259;70142;-80
2023/02/07 01:58:15;;;;;;;31.90;14.10;;;;;;;8.90;40.15;101589.98;108641;1259;72591;-81
2023/02/07 02:01:00;;;;;;;31.80;15.40;;;;;;;8.54;40.70;101589.67;108503;1259;61626;-83
2023/02/07 02:03:33;;;;;;;32.50;14.40;;;;;;;8.59;40.35;101585.09;108537;1258;60331;-80
2023/02/07 02:06:09;;;;;;;28.00;14.30;;;;;;;8.67;40.26;101583.83;108495;1264;73989;-82
2023/02/07 02:09:10;;;;;;;30.90;14.80;;;;;;;8.60;40.21;101581.25;108663;1259;69087;-82
2023/02/07 02:12:40;;;;;;;30.20;14.00;;;;;;;8.59;40.34;101579.85;108423;1258;72715;-82
2023/02/07 02:15:23;;;;;;;23.50;12.50;;;;;;;8.44;40.67;101584.81;108342;1258;62418;-83
2023/02/07 02:18:26;;;;;;;27.30;13.20;;;;;;;8.77;40.44;101578.34;107960;1259;59345;-84
2023/02/07 02:21:05;;;;;;;29.60;14.50;;;;;;;8.93;40.05;101572.45;107846;1259;74270;-83
2023/02/07 02:23:55;;;;;;;31.70;15.10;;;;;;;9.04;40.02;101570.27;108161;1258;70359;-81
2023/02/07 02:26:53;;;;;;;29.40;15.00;;;;;;;9.00;40.11;101572.04;108469;1259;71785;-82
2023/02/07 02:29:54;;;;;;;30.00;15.30;;;;;;;8.89;40.09;101574.40;108646;1259;60639;-79
2023/02/07 02:32:49;;;;;;;39.40;17.80;;;;;;;8.70;40.28;101574.36;108629;1259;59095;-83
2023/02/07 02:35:35;;;;;;;35.20;16.20;;;;;;;8.63;40.37;101566.86;108514;1259;72916;-82
2023/02/07 02:38:47;;;;;;;34.00;16.60;;;;;;;8.72;40.16;101570.31;108680;1259;70453;-81
2023/02/07 02:41:40;;;;;;;37.20;17.20;;;;;;;8.43;40.54;101570.47;108480;1258;71814;-81
2023/02/07 02:44:16;;;;;;;33.80;16.50;;;;;;;8.24;41.21;101572.29;108412;1259;60995;-81
2023/02/07 02:47:09;;;;;;;32.60;15.30;;;;;;;8.44;40.90;101570.11;108417;1259;59265;-82
2023/02/07 02:49:58;;;;;;;32.30;15.40;;;;;;;8.71;40.56;101568.04;108483;1259;73930;-83
2023/02/07 02:52:38;;;;;;;;;;;;;;;8.72;40.46;101567.00;108385;1259;70263;-83
2023/02/07 02:55:57;;;;;;;35.90;16.10;;;;;;;8.76;40.41;101566.09;108553;1259;72796;-82
2023/02/07 02:59:00;;;;;;;31.40;16.00;;;;;;;8.84;40.28;101570.59;108522;1264;61721;-80
2023/02/07 03:01:46;;;;;;;30.90;15.70;;;;;;;8.72;40.45;101572.94;108571;1259;60164;-82
2023/02/07 03:04:32;;;;;;;34.40;16.60;;;;;;;8.46;40.81;101572.56;108500;1259;73652;-81
2023/02/07 03:07:57;;;;;;;38.10;17.90;;;;;;;7.77;41.78;101568.95;108548;1258;70219;-82
2023/02/07 03:10:47;;;;;;;30.10;14.10;;;;;;;7.79;42.11;101564.92;108129;1266;71899;-82
2023/02/07 03:13:34;;;;;;;32.10;15.90;;;;;;;7.90;42.00;101559.83;108490;1259;61070;-81
2023/02/07 03:16:39;;;;;;;37.30;16.40;;;;;;;7.85;42.08;101558.44;108442;1259;61441;-82
2023/02/07 03:19:25;;;;;;;32.20;15.30;;;;;;;7.77;42.36;101558.46;108447;1264;73571;-80
2023/02/07 03:22:09;;;;;;;33.20;16.30;;;;;;;7.76;42.23;101564.05;108616;1259;68399;-81
2023/02/07 03:24:44;;;;;;;36.70;16.80;;;;;;;8.26;41.61;101560.04;108449;1259;72778;-82
2023/02/07 03:27:16;;;;;;;36.60;16.60;;;;;;;8.35;41.34;101566.28;108240;1259;61260;-81
2023/02/07 03:29:46;;;;;;;42.70;17.40;;;;;;;8.35;41.28;101562.61;108469;1259;59043;-82
2023/02/07 03:32:21;;;;;;;38.30;17.60;;;;;;;8.52;41.12;101561.52;108580;1259;73836;-81
2023/02/07 03:35:04;;;;;;;41.60;19.20;;;;;;;8.65;40.86;101561.08;108562;1259;69281;-83
2023/02/07 03:37:38;;;;;;;33.30;16.10;;;;;;;8.84;40.50;101565.34;108549;1259;70853;-82
2023/02/07 03:40:08;;;;;;;30.10;15.60;;;;;;;8.58;40.81;101563.21;108470;1259;61191;-81
2023/02/07 03:42:52;;;;;;;27.80;14.60;;;;;;;8.32;41.30;101560.00;108927;1259;60402;-82
2023/02/07 03:45:20;;;;;;;33.70;16.10;;;;;;;8.34;41.50;101561.05;108874;1263;72257;-81
2023/02/07 03:47:48;;;;;;;33.90;15.40;;;;;;;8.26;41.45;101563.88;108652;1259;70737;-84
2023/02/07 03:50:15;;;;;;;26.90;14.50;;;;;;;8.23;41.53;101563.36;108547;1259;72480;-82
2023/02/07 03:52:43;;;;;;;31.80;15.70;;;;;;;8.13;41.55;101566.38;108507;1259;62058;-80
2023/02/07 03:55:26;;;;;;;29.50;14.90;;;;;;;8.33;41.48;101569.98;108464;1258;59324;-82
2023/02/07 03:57:55;;;;;;;33.20;15.80;;;;;;;8.38;41.23;101571.20;108556;1259;74117;-82
2023/02/07 04:00:33;;;;;;;32.80;14.70;;;;;;;8.39;41.00;101573.98;108558;1259;70202;-82
2023/02/07 04:03:00;;;;;;;26.40;13.10;;;;;;;8.31;41.23;101581.54;108556;1259;72612;-82
2023/02/07 04:05:31;;;;;;;24.60;12.90;;;;;;;8.23;41.50;101582.96;108511;1259;62355;-82
2023/02/07 04:08:13;;;;;;;27.20;13.60;;;;;;;8.49;41.22;101582.52;108496;1259;60384;-81
2023/02/07 04:10:42;;;;;;;25.00;13.10;;;;;;;8.80;40.88;101584.63;108493;1259;74352;-82
2023/02/07 04:13:12;;;;;;;28.10;14.70;;;;;;;9.13;40.31;101587.90;108480;1259;70174;-82
2023/02/07 04:15:39;;;;;;;26.90;13.00;;;;;;;9.09;40.26;101594.05;108489;1259;71630;-82
2023/02/07 04:18:08;;;;;;;26.80;14.20;;;;;;;9.15;40.19;101596.30;108409;1259;59284;-82
2023/02/07 04:20:36;;;;;;;29.80;14.70;;;;;;;8.84;40.64;101598.09;108337;1258;59724;-83
2023/02/07 04:23:03;;;;;;;35.80;17.90;;;;;;;8.81;40.76;101596.36;108487;1259;73764;-82
2023/02/07 04:25:36;;;;;;;30.20;15.80;;;;;;;8.93;40.59;101599.95;108621;1259;70289;-82
2023/02/07 04:28:08;;;;;;;28.70;15.40;;;;;;;9.03;40.34;101602.51;108397;1258;72547;-80
2023/02/07 04:30:36;;;;;;;29.30;14.60;;;;;;;8.97;40.46;101602.90;108315;1259;60497;-83
2023/02/07 04:33:04;;;;;;;32.20;16.20;;;;;;;9.27;39.89;101604.27;108422;1258;59955;-81
2023/02/07 04:35:34;;;;;;;35.20;17.40;;;;;;;9.01;40.22;101603.92;107115;1259;1066708;-83
2023/02/07 04:39:22;;;;;;;44.20;20.80;;;;;;;6.58;45.25;101615.95;104896;1291;601220;-66
2023/02/07 04:41:51;;;;;;;38.00;20.00;;;;;;;8.45;41.54;101613.17;107270;1268;60818;-66
2023/02/07 04:44:19;;;;;;;42.00;19.20;;;;;;;8.87;40.54;101618.38;107404;1266;61426;-65
2023/02/07 04:46:47;;;;;;;41.10;20.70;;;;;;;8.74;40.66;101623.89;107616;1264;71939;-63
2023/02/07 04:49:15;;;;;;;45.50;21.50;;;;;;;8.68;40.76;101629.17;107515;1263;69437;-63
2023/02/07 04:51:44;;;;;;;46.20;21.90;;;;;;;8.82;40.52;101630.31;107506;1265;73392;-65
2023/02/07 04:54:12;;;;;;;44.40;20.70;;;;;;;8.74;40.76;101630.72;107428;1263;256959;-64
2023/02/07 04:56:40;;;;;;;51.10;22.90;;;;;;;8.68;40.79;101634.77;107602;1260;59832;-64
2023/02/07 04:59:08;;;;;;;41.60;19.10;;;;;;;8.66;40.66;101632.69;107674;1260;71762;-65
2023/02/07 05:01:37;;;;;;;42.90;19.90;;;;;;;8.48;40.77;101641.34;107728;1261;71544;-64
2023/02/07 05:04:07;;;;;;;42.20;20.20;;;;;;;8.30;41.12;101646.27;107634;1260;73635;-63
2023/02/07 05:06:35;;;;;;;39.50;19.40;;;;;;;8.27;41.28;101653.65;107700;1261;60887;-64
2023/02/07 05:09:03;;;;;;;38.80;19.10;;;;;;;8.48;40.90;101659.89;107655;1261;59640;-67
2023/02/07 05:11:32;;;;;;;36.70;17.50;;;;;;;8.60;40.58;101659.84;107683;1261;74081;-64
2023/02/07 05:14:00;;;;;;;29.50;15.50;;;;;;;8.48;40.71;101665.31;107643;1260;71611;-65
2023/02/07 05:16:29;;;;;;;36.40;18.10;;;;;;;8.40;40.72;101664.29;107601;1263;73468;-63
2023/02/07 05:18:57;;;;;;;36.70;16.60;;;;;;;8.37;40.74;101661.33;107633;1261;62826;-63
2023/02/07 05:21:25;;;;;;;43.80;19.80;;;;;;;8.60;40.45;101667.03;107626;1261;61577;-66
2023/02/07 05:23:53;;;;;;;37.90;19.10;;;;;;;8.66;40.29;101667.70;107579;1264;74489;-62
2023/02/07 05:26:21;;;;;;;36.60;17.60;;;;;;;8.54;40.26;101672.83;107408;1260;71289;-64
2023/02/07 05:28:49;;;;;;;48.00;21.50;;;;;;;8.55;40.35;101673.01;107561;1261;71976;-65
2023/02/07 05:31:18;;;;;;;39.70;18.80;;;;;;;8.67;40.16;101678.02;107485;1260;62118;-66
2023/02/07 05:33:46;;;;;;;49.00;21.40;;;;;;;8.78;39.93;101678.86;107525;1260;60784;-63
2023/02/07 05:36:14;;;;;;;48.70;21.40;;;;;;;8.54;40.24;101682.45;107576;1260;74310;-66
2023/02/07 05:38:42;;;;;;;51.30;21.20;;;;;;;8.66;40.25;101682.59;107591;1260;71424;-65
2023/02/07 05:41:10;;;;;;;44.80;20.40;;;;;;;8.55;40.23;101684.88;107586;1260;73683;-63
2023/02/07 05:43:38;;;;;;;47.70;21.00;;;;;;;8.62;40.16;101690.13;107536;1265;61985;-65
2023/02/07 05:46:06;;;;;;;45.20;19.50;;;;;;;8.53;40.30;101689.63;107558;1260;61205;-67
2023/02/07 05:48:35;;;;;;;46.70;20.80;;;;;;;8.23;40.59;101690.39;107583;1260;74099;-65
2023/02/07 05:51:03;;;;;;;43.70;19.20;;;;;;;8.22;40.63;101692.67;107568;1261;70557;-66
2023/02/07 05:53:31;;;;;;;45.70;22.00;;;;;;;8.36;40.40;101695.27;107578;1265;72080;-67
2023/02/07 05:55:59;;;;;;;51.00;21.10;;;;;;;8.30;40.36;101697.92;107556;1261;61325;-66
2023/02/07 05:58:28;;;;;;;45.20;20.20;;;;;;;8.50;40.16;101696.31;107848;1258;60836;-65
2023/02/07 06:00:58;;;;;;;44.80;21.20;;;;;;;8.45;40.23;101698.42;107880;1257;72197;-65
2023/02/07 06:03:26;;;;;;;42.10;19.60;;;;;;;8.24;40.37;101699.86;107893;1260;69723;-67
2023/02/07 06:05:54;;;;;;;42.40;17.90;;;;;;;8.05;40.67;101705.65;107792;1260;73525;-66
2023/02/07 06:08:23;;;;;;;39.10;19.30;;;;;;;8.09;40.60;101712.13;107731;1257;62162;-66
2023/02/07 06:10:51;;;;;;;43.00;20.00;;;;;;;7.88;41.00;101712.48;107752;1260;60252;-65
2023/02/07 06:13:19;;;;;;;38.00;18.30;;;;;;;8.20;40.75;101714.19;107823;1258;74024;-64
2023/02/07 06:15:47;;;;;;;35.90;18.40;;;;;;;7.99;40.86;101715.45;107792;1257;71858;-64
2023/02/07 06:18:16;;;;;;;43.00;18.70;;;;;;;7.90;41.14;101717.91;107767;1260;73915;-66
2023/02/07 06:20:44;;;;;;;41.20;19.60;;;;;;;7.97;40.99;101726.30;107732;1258;60258;-66
2023/02/07 06:23:12;;;;;;;44.60;19.40;;;;;;;8.28;40.55;101726.08;107792;1260;59985;-67
2023/02/07 06:25:41;;;;;;;45.60;20.10;;;;;;;8.09;40.93;101722.61;107792;1257;74240;-66
2023/02/07 06:28:09;;;;;;;42.50;19.60;;;;;;;8.17;40.76;101730.83;107751;1258;71466;-65
2023/02/07 06:30:37;;;;;;;38.60;17.70;;;;;;;7.97;40.94;101735.57;107664;1260;72166;-65
2023/02/07 06:33:07;;;;;;;39.70;17.60;;;;;;;7.92;41.27;101735.92;107714;1260;62385;-64
2023/02/07 06:35:35;;;;;;;39.50;18.20;;;;;;;8.10;40.90;101738.70;107764;1261;60259;-65
2023/02/07 06:38:05;;;;;;;30.70;16.60;;;;;;;7.88;41.19;101736.27;107752;1260;72304;-65
2023/02/07 06:40:33;;;;;;;38.50;18.10;;;;;;;7.83;41.17;101740.98;107762;1260;71652;-65
2023/02/07 06:43:01;;;;;;;40.80;19.30;;;;;;;7.57;41.38;101744.81;107767;1260;72632;-64
2023/02/07 06:45:30;;;;;;;52.50;25.40;;;;;;;7.61;41.52;101745.17;107743;1260;59032;-64
2023/02/07 06:47:58;;;;;;;40.60;20.10;;;;;;;7.56;41.63;101751.11;107775;1259;61536;-65
2023/02/07 06:50:26;;;;;;;36.10;17.80;;;;;;;7.79;41.65;101753.23;107766;1259;73965;-66
2023/02/07 06:53:00;;;;;;;34.40;17.90;;;;;;;8.38;40.93;101756.35;107770;1260;71248;-66
2023/02/07 06:55:30;;;;;;;32.30;17.00;;;;;;;8.40;40.81;101756.52;107720;1260;73569;-66
2023/02/07 06:57:58;;;;;;;29.20;15.30;;;;;;;8.66;40.44;101755.77;107792;1260;62344;-66
2023/02/07 07:00:28;;;;;;;30.70;16.40;;;;;;;8.96;39.81;101754.96;107727;1260;61050;-66
2023/02/07 07:02:56;;;;;;;31.60;16.90;;;;;;;9.02;39.41;101756.34;107746;1257;73588;-66
2023/02/07 07:05:26;;;;;;;38.50;18.30;;;;;;;9.15;39.73;101751.36;107942;1257;70407;-66
2023/02/07 07:07:55;;;;;;;33.40;17.00;;;;;;;9.72;39.98;101756.96;107802;1258;74121;-64
2023/02/07 07:10:23;;;;;;;30.10;15.90;;;;;;;10.50;39.19;101754.87;107789;1257;62451;-66
2023/02/07 07:12:51;;;;;;;29.10;15.90;;;;;;;10.97;38.30;101753.27;107834;1257;60933;-66
2023/02/07 07:15:19;;;;;;;28.50;14.90;;;;;;;11.26;36.47;101752.54;107764;1261;73989;-67
2023/02/07 07:17:47;;;;;;;31.70;15.80;;;;;;;11.15;35.71;101756.90;107852;1257;71837;-65
2023/02/07 07:20:16;;;;;;;28.60;16.10;;;;;;;10.85;35.86;101760.09;107752;1257;73545;-65
2023/02/07 07:22:44;;;;;;;30.10;17.20;;;;;;;10.82;35.91;101765.59;107778;1257;60596;-66
2023/02/07 07:25:12;;;;;;;35.90;18.10;;;;;;;10.73;36.26;101774.11;108065;1254;60976;-65
2023/02/07 07:27:40;;;;;;;32.10;17.80;;;;;;;10.71;36.41;101778.55;108150;1254;74116;-65
2023/02/07 07:30:09;;;;;;;28.00;15.90;;;;;;;11.10;36.30;101779.11;108242;1253;69723;-65
2023/02/07 07:32:38;;;;;;;28.70;15.70;;;;;;;11.09;35.96;101780.89;108174;1253;72190;-66
2023/02/07 07:35:06;;;;;;;27.90;13.90;;;;;;;11.11;35.58;101783.85;108229;1253;60212;-67
2023/02/07 07:37:34;;;;;;;26.00;15.10;;;;;;;11.02;35.91;101785.20;108197;1253;61118;-67
2023/02/07 07:40:03;;;;;;;31.60;16.20;;;;;;;11.19;35.72;101786.56;108134;1256;73945;-64
2023/02/07 07:42:31;;;;;;;27.10;14.50;;;;;;;11.00;35.97;101786.28;108160;1254;71334;-66
2023/02/07 07:45:21;;;;;;;47.20;21.40;;;;;;;10.95;35.58;101789.85;108085;1254;72670;-65
2023/02/07 07:47:49;;;;;;;29.70;16.00;;;;;;;10.86;35.73;101791.55;108243;1252;59678;-67
2023/02/07 09:13:57;;;;;;;32.50;19.10;;;;;;;6.02;46.95;101853.46;105528;1288;612467;-66
2023/02/07 09:16:24;;;;;;;63.60;35.40;;;;;;;8.76;41.44;101845.55;107235;1266;60670;-66
2023/02/07 09:18:51;;;;;;;50.30;18.30;;;;;;;9.48;40.02;101845.67;107670;1260;61320;-67
2023/02/07 09:21:18;;;;;;;30.40;13.90;;;;;;;10.18;39.44;101838.35;107693;1259;71439;-67
2023/02/07 09:23:44;;;;;;;26.50;14.10;;;;;;;10.91;38.60;101838.41;107717;1260;71551;-66
2023/02/07 09:26:20;;;;;;;21.60;12.40;;;;;;;11.16;35.98;101839.15;107532;1260;226392;-66
2023/02/07 09:28:46;;;;;;;31.00;15.60;;;;;;;11.33;35.68;101837.38;107836;1260;57883;-66
2023/02/07 09:31:14;;;;;;;23.20;12.20;;;;;;;11.46;35.66;101837.20;107911;1257;61441;-66
2023/02/07 09:33:41;;;;;;;36.00;18.50;;;;;;;11.68;35.45;101833.73;107840;1260;72293;-66
2023/02/07 09:36:26;;;;;;;36.50;21.30;;;;;;;11.70;34.34;101835.47;107908;1257;70823;-66
2023/02/07 09:38:53;;;;;;;35.00;15.30;;;;;;;11.85;32.81;101832.80;107890;1257;73653;-66
2023/02/07 09:41:55;;;;;;;37.90;14.00;;;;;;;11.85;33.33;101829.45;107893;1257;60699;-67
2023/02/07 09:44:27;;;;;;;22.00;11.10;;;;;;;11.49;32.94;101835.58;107341;1257;61179;-67
2023/02/07 09:46:57;;;;;;;15.60;8.30;;;;;;;11.47;32.79;101839.84;107871;1257;73300;-67
2023/02/07 09:49:32;;;;;;;21.70;10.60;;;;;;;11.14;32.63;101840.08;107893;1256;71136;-67
2023/02/07 09:51:59;;;;;;;27.90;12.00;;;;;;;11.01;32.55;101848.14;107883;1257;73447;-68
2023/02/07 09:54:38;;;;;;;19.10;9.40;;;;;;;10.97;32.82;101845.20;107925;1257;60358;-68
2023/02/07 09:57:10;;;;;;;18.10;9.00;;;;;;;10.90;32.26;101850.55;107875;1257;61030;-67
2023/02/07 09:59:43;;;;;;;21.00;11.10;;;;;;;10.87;32.16;101849.69;107688;1256;74133;-67
2023/02/07 10:02:41;;;;;;;46.40;20.30;;;;;;;10.88;31.60;101851.27;107877;1257;71575;-67
2023/02/07 10:05:16;;;;;;;49.80;16.50;;;;;;;11.15;32.01;101846.39;107848;1257;73747;-66
2023/02/07 10:07:44;;;;;;;54.10;14.70;;;;;;;11.20;31.66;101849.84;107875;1257;61375;-67
2023/02/07 10:10:18;;;;;;;18.80;9.90;;;;;;;11.20;32.11;101851.95;107953;1257;59519;-66
2023/02/07 10:13:04;;;;;;;13.00;7.90;;;;;;;10.89;31.51;101852.83;107952;1260;74026;-67
2023/02/07 10:15:40;;;;;;;14.60;7.90;;;;;;;10.60;30.62;101852.08;107829;1257;71595;-67
2023/02/07 10:18:58;;;;;;;14.90;8.30;;;;;;;10.53;30.77;101853.20;107803;1257;73643;-66
2023/02/07 10:21:31;;;;;;;20.50;10.20;;;;;;;10.56;31.13;101851.95;107274;1265;59825;-67
2023/02/07 10:24:15;;;;;;;18.90;9.30;;;;;;;10.61;31.18;101851.54;107767;1257;61244;-67
2023/02/07 10:26:45;;;;;;;21.10;9.90;;;;;;;10.92;31.56;101850.34;108108;1254;73133;-67
2023/02/07 10:29:24;;;;;;;15.60;9.00;;;;;;;11.78;31.34;101847.66;108112;1254;71398;-67
2023/02/07 10:31:53;;;;;;;12.20;7.50;;;;;;;12.20;30.03;101854.80;108060;1254;71682;-68
2023/02/07 10:34:24;;;;;;;23.00;13.20;;;;;;;12.16;28.77;101858.73;108163;1254;60569;-67
2023/02/07 10:36:51;;;;;;;27.30;11.60;;;;;;;12.32;28.55;101860.05;108101;1254;61371;-67
2023/02/07 10:39:21;;;;;;;21.10;9.20;;;;;;;12.02;28.10;101863.35;108187;1254;76058;-67
2023/02/07 10:41:48;;;;;;;15.50;6.90;;;;;;;11.48;28.18;101864.61;108084;1254;71253;-67
2023/02/07 10:44:19;;;;;;;22.50;8.30;;;;;;;11.16;28.28;101870.63;108102;1254;73782;-66
2023/02/07 10:46:57;;;;;;;10.10;6.20;;;;;;;10.68;28.42;101885.02;108138;1254;59541;-67
2023/02/07 10:49:26;;;;;;;10.20;5.90;;;;;;;10.63;28.44;101880.33;108072;1254;59997;-67
2023/02/07 10:51:57;;;;;;;10.70;6.40;;;;;;;10.66;28.41;101882.75;108062;1254;74769;-66
2023/02/07 10:54:27;;;;;;;11.30;6.70;;;;;;;10.24;28.64;101884.30;107994;1254;71453;-66
2023/02/07 10:56:58;;;;;;;13.90;6.80;;;;;;;10.04;29.49;101884.29;107816;1254;73861;-67
2023/02/07 10:59:29;;;;;;;11.10;6.50;;;;;;;10.21;29.38;101886.44;108010;1254;60076;-68
2023/02/07 11:01:56;;;;;;;12.90;6.80;;;;;;;10.25;28.77;101888.35;108058;1254;61615;-68
2023/02/07 11:04:37;;;;;;;11.10;6.40;;;;;;;10.28;29.00;101888.15;107854;1254;74037;-67
2023/02/07 11:07:06;;;;;;;17.20;9.70;;;;;;;10.07;29.64;101888.81;108095;1254;70632;-67
2023/02/07 11:09:40;;;;;;;73.70;31.70;;;;;;;10.59;29.04;101890.36;108034;1258;73374;-68
2023/02/07 11:12:15;;;;;;;21.60;9.30;;;;;;;11.55;28.39;101885.45;108011;1254;60599;-67
2023/02/07 11:15:00;;;;;;;13.40;6.50;;;;;;;12.26;28.54;101884.08;108088;1254;60265;-67
2023/02/07 11:17:28;;;;;;;11.90;6.50;;;;;;;12.93;26.84;101884.71;107942;1254;74110;-67
2023/02/07 11:19:55;;;;;;;9.90;6.10;;;;;;;12.66;25.79;101891.01;108043;1254;71657;-66
2023/02/07 11:22:23;;;;;;;10.80;6.40;;;;;;;12.75;25.45;101882.56;108145;1254;71783;-68
2023/02/07 11:24:53;;;;;;;10.80;6.40;;;;;;;12.43;25.50;101887.70;108190;1254;60445;-67
2023/02/07 11:27:22;;;;;;;12.40;7.70;;;;;;;12.31;25.53;101892.13;108055;1254;60092;-67
2023/02/07 11:29:51;;;;;;;14.30;7.90;;;;;;;12.14;25.74;101891.18;108039;1254;73364;-67
2023/02/07 11:32:17;;;;;;;13.80;7.60;;;;;;;11.78;26.05;101889.38;108080;1254;71478;-66
2023/02/07 11:34:48;;;;;;;20.80;12.10;;;;;;;11.84;26.27;101891.75;107924;1254;72646;-67
2023/02/07 11:37:25;;;;;;;31.60;15.20;;;;;;;11.88;26.42;101888.73;107949;1254;59626;-66
2023/02/07 11:39:55;;;;;;;19.60;9.60;;;;;;;11.69;26.54;101888.08;108052;1254;61465;-65
2023/02/07 11:42:29;;;;;;;19.90;9.80;;;;;;;11.69;26.21;101888.80;108067;1254;72944;-66
2023/02/07 11:44:58;;;;;;;13.80;7.50;;;;;;;11.98;26.03;101890.52;107960;1260;70073;-67
2023/02/07 11:47:26;;;;;;;12.40;7.30;;;;;;;11.75;26.51;101890.11;107952;1254;72525;-68
2023/02/07 11:50:02;;;;;;;11.30;6.80;;;;;;;11.92;26.48;101891.30;107957;1254;59535;-68
2023/02/07 11:52:30;;;;;;;21.20;9.40;;;;;;;11.89;26.35;101892.39;107984;1254;62274;-67
2023/02/07 11:54:59;;;;;;;13.00;6.80;;;;;;;11.95;26.38;101893.91;107950;1256;72826;-66
2023/02/07 11:57:28;;;;;;;17.50;8.10;;;;;;;12.01;26.34;101899.10;107993;1254;70320;-66
2023/02/07 12:00:27;;;;;;;11.80;7.30;;;;;;;11.69;26.50;101904.09;107988;1254;72746;-68
2023/02/07 12:03:02;;;;;;;12.50;7.00;;;;;;;12.05;26.07;101904.49;107913;1254;60810;-67
2023/02/07 12:05:32;;;;;;;15.90;8.20;;;;;;;12.17;26.32;101905.04;108123;1254;59459;-67
2023/02/07 12:08:01;;;;;;;15.30;9.40;;;;;;;12.16;26.00;101901.88;107990;1254;71252;-67
2023/02/07 12:10:32;;;;;;;27.50;14.10;;;;;;;12.49;25.84;101902.04;108025;1258;71422;-66
2023/02/07 12:13:23;;;;;;;16.60;8.00;;;;;;;12.09;25.74;101904.95;108102;1254;71429;-67
2023/02/07 12:15:54;;;;;;;15.70;7.90;;;;;;;12.01;26.30;101908.08;107977;1254;59625;-67
2023/02/07 12:18:49;;;;;;;14.60;7.50;;;;;;;11.87;26.28;101913.37;108029;1254;60125;-68
2023/02/07 12:21:32;;;;;;;14.00;7.60;;;;;;;11.57;26.46;101914.45;107824;1254;74066;-66
2023/02/07 12:24:05;;;;;;;13.90;8.20;;;;;;;12.12;26.17;101913.36;108067;1254;69665;-66
2023/02/07 12:26:36;;;;;;;13.10;7.40;;;;;;;12.30;25.85;101920.85;108016;1258;71786;-66
2023/02/07 12:29:12;;;;;;;14.80;8.00;;;;;;;12.55;25.46;101917.45;108042;1254;60425;-67
2023/02/07 12:31:53;;;;;;;14.10;7.50;;;;;;;12.93;25.50;101922.96;108076;1254;59494;-67
2023/02/07 12:34:31;;;;;;;13.30;7.90;;;;;;;12.95;25.18;101922.58;107967;1255;73341;-65
2023/02/07 12:37:13;;;;;;;14.90;8.50;;;;;;;12.93;25.33;101923.47;108010;1254;69412;-65
2023/02/07 12:39:45;;;;;;;20.30;10.70;;;;;;;12.66;25.72;101928.36;107896;1254;72730;-66
2023/02/07 12:42:22;;;;;;;14.50;8.20;;;;;;;12.54;25.87;101932.96;107938;1255;60658;-65
2023/02/07 12:44:57;;;;;;;25.50;12.30;;;;;;;12.49;25.90;101933.93;107882;1257;61376;-67
2023/02/07 12:47:51;;;;;;;26.30;10.20;;;;;;;12.46;25.78;101941.56;108146;1254;73995;-66
2023/02/07 12:50:32;;;;;;;22.90;10.30;;;;;;;12.43;25.62;101936.33;108057;1254;71645;-67
2023/02/07 12:53:08;;;;;;;23.60;11.50;;;;;;;12.06;26.10;101937.40;108080;1254;72789;-66
2023/02/07 12:55:51;;;;;;;21.00;9.80;;;;;;;12.02;26.42;101935.70;108092;1254;60668;-67
2023/02/07 12:58:39;;;;;;;22.00;11.10;;;;;;;12.45;26.52;101936.63;108062;1254;61137;-67
2023/02/07 13:01:19;;;;;;;21.10;10.70;;;;;;;13.37;26.03;101934.66;108039;1254;74100;-66
2023/02/07 13:04:04;;;;;;;18.20;10.10;;;;;;;13.80;25.76;101933.95;108052;1254;69962;-66